sensor_id;sensor_type;location;lat;lon;timestamp;pressure;altitude;pressure_sealevel;temperature;humidity
5812;BME280;2932;52.400;9.558;2023-03-18T00:02:19;100193.25;;;16.04;57.39
5812;BME280;2932;52.400;9.558;2023-03-18T00:04:48;100185.38;;;16.31;54.60
5812;BME280;2932;52.400;9.558;2023-03-18T00:07:14;100188.13;;;16.13;55.17
5812;BME280;2932;52.400;9.558;2023-03-18T00:09:45;100192.84;;;15.95;55.30
5812;BME280;2932;52.400;9.558;2023-03-18T00:12:10;100182.56;;;16.24;54.61
5812;BME280;2932;52.400;9.558;2023-03-18T00:14:38;100180.63;;;16.63;53.65
5812;BME280;2932;52.400;9.558;2023-03-18T00:17:10;100177.50;;;16.76;53.44
5812;BME280;2932;52.400;9.558;2023-03-18T00:19:38;100186.97;;;16.32;54.01
5812;BME280;2932;52.400;9.558;2023-03-18T00:22:04;100179.38;;;16.18;54.55
5812;BME280;2932;52.400;9.558;2023-03-18T00:24:32;100180.97;;;16.26;54.13
5812;BME280;2932;52.400;9.558;2023-03-18T00:27:00;100185.38;;;16.31;53.81
5812;BME280;2932;52.400;9.558;2023-03-18T00:29:38;100186.13;;;16.17;54.85
5812;BME280;2932;52.400;9.558;2023-03-18T00:32:09;100180.91;;;16.05;54.78
5812;BME280;2932;52.400;9.558;2023-03-18T00:34:43;100178.09;;;15.94;54.54
5812;BME280;2932;52.400;9.558;2023-03-18T00:37:09;100186.44;;;15.84;54.97
5812;BME280;2932;52.400;9.558;2023-03-18T00:39:43;100199.22;;;15.92;55.37
5812;BME280;2932;52.400;9.558;2023-03-18T00:42:21;100182.41;;;15.78;55.23
5812;BME280;2932;52.400;9.558;2023-03-18T00:44:50;100194.06;;;16.08;54.53
5812;BME280;2932;52.400;9.558;2023-03-18T00:47:16;100194.44;;;15.92;54.75
5812;BME280;2932;52.400;9.558;2023-03-18T00:49:45;100200.59;;;15.54;55.75
5812;BME280;2932;52.400;9.558;2023-03-18T00:52:10;100199.13;;;15.74;55.60
5812;BME280;2932;52.400;9.558;2023-03-18T00:54:38;100211.81;;;15.61;55.51
5812;BME280;2932;52.400;9.558;2023-03-18T00:57:04;100219.66;;;16.21;54.75
5812;BME280;2932;52.400;9.558;2023-03-18T00:59:39;100217.28;;;16.33;54.27
5812;BME280;2932;52.400;9.558;2023-03-18T01:02:05;100222.50;;;16.39;54.26
5812;BME280;2932;52.400;9.558;2023-03-18T01:04:34;100225.69;;;16.51;54.04
5812;BME280;2932;52.400;9.558;2023-03-18T01:07:14;100228.94;;;16.64;54.12
5812;BME280;2932;52.400;9.558;2023-03-18T01:09:42;100219.69;;;16.46;54.27
5812;BME280;2932;52.400;9.558;2023-03-18T01:12:11;100214.13;;;16.49;54.45
5812;BME280;2932;52.400;9.558;2023-03-18T01:14:38;100211.34;;;16.56;54.55
5812;BME280;2932;52.400;9.558;2023-03-18T01:17:07;100213.34;;;16.52;54.88
5812;BME280;2932;52.400;9.558;2023-03-18T01:19:39;100220.09;;;16.33;55.46
5812;BME280;2932;52.400;9.558;2023-03-18T01:22:07;100216.47;;;16.22;55.75
5812;BME280;2932;52.400;9.558;2023-03-18T01:24:39;100211.28;;;16.21;55.90
5812;BME280;2932;52.400;9.558;2023-03-18T01:27:09;100208.81;;;15.98;56.72
5812;BME280;2932;52.400;9.558;2023-03-18T01:29:40;100211.63;;;16.12;56.53
5812;BME280;2932;52.400;9.558;2023-03-18T01:32:06;100221.22;;;16.15;57.43
5812;BME280;2932;52.400;9.558;2023-03-18T01:34:31;100217.56;;;16.04;57.66
5812;BME280;2932;52.400;9.558;2023-03-18T01:36:57;100218.25;;;15.76;58.46
5812;BME280;2932;52.400;9.558;2023-03-18T01:39:29;100226.34;;;15.95;58.64
5812;BME280;2932;52.400;9.558;2023-03-18T01:41:54;100222.69;;;15.80;59.64
5812;BME280;2932;52.400;9.558;2023-03-18T01:44:24;100215.59;;;16.04;59.31
5812;BME280;2932;52.400;9.558;2023-03-18T01:46:51;100212.78;;;16.00;59.60
5812;BME280;2932;52.400;9.558;2023-03-18T01:49:23;100220.06;;;16.26;59.73
5812;BME280;2932;52.400;9.558;2023-03-18T01:52:18;100219.19;;;16.08;61.01
5812;BME280;2932;52.400;9.558;2023-03-18T01:57:24;100216.75;;;15.99;63.27
5812;BME280;2932;52.400;9.558;2023-03-18T01:59:54;100218.06;;;15.44;65.73
5812;BME280;2932;52.400;9.558;2023-03-18T02:02:24;100222.25;;;15.20;66.96
5812;BME280;2932;52.400;9.558;2023-03-18T02:05:11;100211.16;;;15.23;67.34
5812;BME280;2932;52.400;9.558;2023-03-18T02:07:41;100213.41;;;15.04;67.78
5812;BME280;2932;52.400;9.558;2023-03-18T02:12:48;100212.13;;;14.94;69.63
5812;BME280;2932;52.400;9.558;2023-03-18T02:15:23;100215.28;;;14.92;69.87
5812;BME280;2932;52.400;9.558;2023-03-18T02:18:10;100213.34;;;14.52;71.35
5812;BME280;2932;52.400;9.558;2023-03-18T02:23:41;100215.13;;;14.71;72.54
5812;BME280;2932;52.400;9.558;2023-03-18T02:26:12;100204.81;;;14.75;72.48
5812;BME280;2932;52.400;9.558;2023-03-18T02:28:40;100213.41;;;14.59;73.30
5812;BME280;2932;52.400;9.558;2023-03-18T02:31:10;100204.16;;;14.48;73.96
5812;BME280;2932;52.400;9.558;2023-03-18T02:33:38;100216.53;;;14.17;75.44
5812;BME280;2932;52.400;9.558;2023-03-18T02:36:11;100203.78;;;14.50;74.85
5812;BME280;2932;52.400;9.558;2023-03-18T02:38:45;100206.78;;;14.34;75.77
5812;BME280;2932;52.400;9.558;2023-03-18T02:41:16;100206.91;;;14.45;75.42
5812;BME280;2932;52.400;9.558;2023-03-18T02:43:45;100221.50;;;14.34;75.88
5812;BME280;2932;52.400;9.558;2023-03-18T02:48:56;100219.09;;;13.99;76.84
5812;BME280;2932;52.400;9.558;2023-03-18T02:51:22;100218.59;;;14.24;76.92
5812;BME280;2932;52.400;9.558;2023-03-18T02:53:48;100220.78;;;14.41;76.51
5812;BME280;2932;52.400;9.558;2023-03-18T02:56:14;100217.56;;;14.39;76.94
5812;BME280;2932;52.400;9.558;2023-03-18T02:58:40;100229.03;;;14.34;77.17
5812;BME280;2932;52.400;9.558;2023-03-18T03:01:06;100228.22;;;14.67;76.47
5812;BME280;2932;52.400;9.558;2023-03-18T03:03:33;100229.97;;;14.45;76.97
5812;BME280;2932;52.400;9.558;2023-03-18T03:05:59;100239.50;;;14.44;77.36
5812;BME280;2932;52.400;9.558;2023-03-18T03:08:26;100233.06;;;14.40;77.52
5812;BME280;2932;52.400;9.558;2023-03-18T03:10:52;100231.06;;;14.41;77.24
5812;BME280;2932;52.400;9.558;2023-03-18T03:13:18;100234.16;;;14.28;78.03
5812;BME280;2932;52.400;9.558;2023-03-18T03:15:44;100238.91;;;14.28;77.78
5812;BME280;2932;52.400;9.558;2023-03-18T03:18:09;100229.41;;;14.66;77.58
5812;BME280;2932;52.400;9.558;2023-03-18T03:20:35;100237.63;;;14.96;76.18
5812;BME280;2932;52.400;9.558;2023-03-18T03:23:05;100238.34;;;15.41;74.54
5812;BME280;2932;52.400;9.558;2023-03-18T03:25:31;100246.44;;;15.01;75.23
5812;BME280;2932;52.400;9.558;2023-03-18T03:27:57;100240.06;;;15.01;75.40
5812;BME280;2932;52.400;9.558;2023-03-18T03:30:23;100250.44;;;15.04;75.14
5812;BME280;2932;52.400;9.558;2023-03-18T03:32:48;100238.53;;;15.11;74.84
5812;BME280;2932;52.400;9.558;2023-03-18T03:35:16;100246.59;;;15.26;74.96
5812;BME280;2932;52.400;9.558;2023-03-18T03:37:42;100235.97;;;15.43;74.58
5812;BME280;2932;52.400;9.558;2023-03-18T03:40:11;100235.72;;;15.62;74.01
5812;BME280;2932;52.400;9.558;2023-03-18T03:42:37;100241.22;;;15.51;73.76
5812;BME280;2932;52.400;9.558;2023-03-18T03:45:04;100235.84;;;15.83;73.03
5812;BME280;2932;52.400;9.558;2023-03-18T03:47:30;100235.44;;;15.85;73.20
5812;BME280;2932;52.400;9.558;2023-03-18T03:49:56;100230.69;;;15.89;72.69
5812;BME280;2932;52.400;9.558;2023-03-18T03:52:22;100226.28;;;15.84;72.72
5812;BME280;2932;52.400;9.558;2023-03-18T03:54:47;100244.31;;;16.12;72.48
5812;BME280;2932;52.400;9.558;2023-03-18T03:57:13;100253.59;;;16.37;71.51
5812;BME280;2932;52.400;9.558;2023-03-18T03:59:38;100247.19;;;16.29;71.46
5812;BME280;2932;52.400;9.558;2023-03-18T04:02:04;100249.47;;;15.99;72.12
5812;BME280;2932;52.400;9.558;2023-03-18T04:04:29;100245.34;;;15.72;73.34
5812;BME280;2932;52.400;9.558;2023-03-18T04:06:54;100244.69;;;15.34;74.07
5812;BME280;2932;52.400;9.558;2023-03-18T04:09:20;100251.28;;;15.66;72.92
5812;BME280;2932;52.400;9.558;2023-03-18T04:11:46;100240.66;;;15.90;72.46
5812;BME280;2932;52.400;9.558;2023-03-18T04:14:11;100243.81;;;15.85;71.99
5812;BME280;2932;52.400;9.558;2023-03-18T04:16:37;100265.41;;;15.95;72.36
5812;BME280;2932;52.400;9.558;2023-03-18T04:19:02;100247.88;;;15.98;71.88
5812;BME280;2932;52.400;9.558;2023-03-18T04:21:27;100243.09;;;15.95;72.07
5812;BME280;2932;52.400;9.558;2023-03-18T04:23:53;100252.63;;;15.94;72.21
5812;BME280;2932;52.400;9.558;2023-03-18T04:26:18;100245.00;;;15.84;72.63
5812;BME280;2932;52.400;9.558;2023-03-18T04:28:43;100249.78;;;15.83;72.21
5812;BME280;2932;52.400;9.558;2023-03-18T04:31:09;100248.25;;;16.00;72.29
5812;BME280;2932;52.400;9.558;2023-03-18T04:33:34;100266.13;;;15.85;71.90
5812;BME280;2932;52.400;9.558;2023-03-18T04:36:00;100262.84;;;15.68;72.14
5812;BME280;2932;52.400;9.558;2023-03-18T04:38:25;100262.09;;;15.75;72.31
5812;BME280;2932;52.400;9.558;2023-03-18T04:40:52;100262.09;;;15.75;72.46
5812;BME280;2932;52.400;9.558;2023-03-18T04:43:18;100255.72;;;15.75;72.47
5812;BME280;2932;52.400;9.558;2023-03-18T04:45:44;100256.16;;;15.84;72.18
5812;BME280;2932;52.400;9.558;2023-03-18T04:48:09;100256.66;;;16.04;71.69
5812;BME280;2932;52.400;9.558;2023-03-18T04:50:35;100259.03;;;16.05;71.44
5812;BME280;2932;52.400;9.558;2023-03-18T04:53:00;100259.88;;;16.09;71.26
5812;BME280;2932;52.400;9.558;2023-03-18T04:55:26;100265.09;;;16.21;70.92
5812;BME280;2932;52.400;9.558;2023-03-18T04:57:51;100257.78;;;15.88;71.60
5812;BME280;2932;52.400;9.558;2023-03-18T05:00:18;100253.78;;;15.86;71.65
5812;BME280;2932;52.400;9.558;2023-03-18T05:02:47;100261.34;;;15.85;71.37
5812;BME280;2932;52.400;9.558;2023-03-18T05:05:12;100259.81;;;16.02;71.03
5812;BME280;2932;52.400;9.558;2023-03-18T05:07:38;100261.13;;;16.22;70.50
5812;BME280;2932;52.400;9.558;2023-03-18T05:10:05;100254.25;;;15.98;70.36
5812;BME280;2932;52.400;9.558;2023-03-18T05:12:34;100255.06;;;15.99;70.68
5812;BME280;2932;52.400;9.558;2023-03-18T05:15:00;100243.31;;;15.68;70.48
5812;BME280;2932;52.400;9.558;2023-03-18T05:17:26;100248.41;;;15.56;71.09
5812;BME280;2932;52.400;9.558;2023-03-18T05:19:51;100243.97;;;15.48;71.37
5812;BME280;2932;52.400;9.558;2023-03-18T05:22:18;100262.94;;;15.28;71.62
5812;BME280;2932;52.400;9.558;2023-03-18T05:24:44;100259.75;;;15.26;71.94
5812;BME280;2932;52.400;9.558;2023-03-18T05:27:11;100259.72;;;15.22;72.09
5812;BME280;2932;52.400;9.558;2023-03-18T05:29:37;100263.53;;;15.51;71.14
5812;BME280;2932;52.400;9.558;2023-03-18T05:32:05;100271.06;;;15.47;70.64
5812;BME280;2932;52.400;9.558;2023-03-18T05:34:35;100277.63;;;15.73;70.03
5812;BME280;2932;52.400;9.558;2023-03-18T05:37:05;100281.97;;;15.70;70.51
5812;BME280;2932;52.400;9.558;2023-03-18T05:39:31;100285.00;;;14.99;71.49
5812;BME280;2932;52.400;9.558;2023-03-18T05:41:57;100278.31;;;15.08;71.83
5812;BME280;2932;52.400;9.558;2023-03-18T05:44:23;100282.56;;;15.42;71.50
5812;BME280;2932;52.400;9.558;2023-03-18T05:46:49;100287.97;;;15.17;71.48
5812;BME280;2932;52.400;9.558;2023-03-18T05:49:19;100286.28;;;15.09;71.65
5812;BME280;2932;52.400;9.558;2023-03-18T05:51:45;100290.88;;;15.35;71.80
5812;BME280;2932;52.400;9.558;2023-03-18T05:54:12;100287.00;;;14.99;72.28
5812;BME280;2932;52.400;9.558;2023-03-18T05:56:37;100284.63;;;15.01;72.00
5812;BME280;2932;52.400;9.558;2023-03-18T05:59:04;100285.88;;;15.07;72.17
5812;BME280;2932;52.400;9.558;2023-03-18T06:01:31;100289.38;;;14.97;72.17
5812;BME280;2932;52.400;9.558;2023-03-18T06:03:57;100289.69;;;15.36;71.49
5812;BME280;2932;52.400;9.558;2023-03-18T06:06:24;100289.88;;;15.10;71.36
5812;BME280;2932;52.400;9.558;2023-03-18T06:08:50;100289.78;;;15.47;71.33
5812;BME280;2932;52.400;9.558;2023-03-18T06:11:15;100294.22;;;15.55;71.17
5812;BME280;2932;52.400;9.558;2023-03-18T06:13:41;100295.91;;;15.66;70.66
5812;BME280;2932;52.400;9.558;2023-03-18T06:16:07;100293.16;;;15.74;70.30
5812;BME280;2932;52.400;9.558;2023-03-18T06:18:33;100295.63;;;15.86;69.83
5812;BME280;2932;52.400;9.558;2023-03-18T06:20:59;100296.34;;;15.72;70.37
5812;BME280;2932;52.400;9.558;2023-03-18T06:23:24;100292.88;;;15.89;70.00
5812;BME280;2932;52.400;9.558;2023-03-18T06:25:50;100294.09;;;15.92;69.77
5812;BME280;2932;52.400;9.558;2023-03-18T06:28:16;100297.28;;;15.94;70.04
5812;BME280;2932;52.400;9.558;2023-03-18T06:30:42;100293.66;;;15.90;70.04
5812;BME280;2932;52.400;9.558;2023-03-18T06:33:08;100302.06;;;15.93;70.29
5812;BME280;2932;52.400;9.558;2023-03-18T06:35:34;100317.22;;;15.96;69.98
5812;BME280;2932;52.400;9.558;2023-03-18T06:38:01;100316.41;;;15.92;70.08
5812;BME280;2932;52.400;9.558;2023-03-18T06:40:27;100324.38;;;15.93;69.55
5812;BME280;2932;52.400;9.558;2023-03-18T06:42:52;100327.66;;;16.13;69.15
5812;BME280;2932;52.400;9.558;2023-03-18T06:45:17;100329.63;;;16.09;69.80
5812;BME280;2932;52.400;9.558;2023-03-18T06:47:43;100333.97;;;16.03;69.74
5812;BME280;2932;52.400;9.558;2023-03-18T06:50:10;100333.72;;;16.26;69.21
5812;BME280;2932;52.400;9.558;2023-03-18T06:52:36;100337.34;;;16.30;69.01
5812;BME280;2932;52.400;9.558;2023-03-18T06:55:03;100336.16;;;16.34;68.92
5812;BME280;2932;52.400;9.558;2023-03-18T06:57:29;100341.66;;;16.20;69.33
5812;BME280;2932;52.400;9.558;2023-03-18T06:59:54;100344.47;;;16.24;69.46
5812;BME280;2932;52.400;9.558;2023-03-18T07:02:19;100344.09;;;16.29;69.15
5812;BME280;2932;52.400;9.558;2023-03-18T07:04:48;100350.44;;;16.22;69.24
5812;BME280;2932;52.400;9.558;2023-03-18T07:07:13;100347.69;;;16.29;68.99
5812;BME280;2932;52.400;9.558;2023-03-18T07:09:38;100343.22;;;16.14;69.01
5812;BME280;2932;52.400;9.558;2023-03-18T07:12:05;100356.09;;;16.40;68.62
5812;BME280;2932;52.400;9.558;2023-03-18T07:14:30;100357.34;;;16.50;68.45
5812;BME280;2932;52.400;9.558;2023-03-18T07:16:56;100361.78;;;16.58;68.16
5812;BME280;2932;52.400;9.558;2023-03-18T07:19:21;100364.56;;;16.58;67.90
5812;BME280;2932;52.400;9.558;2023-03-18T07:21:47;100372.53;;;16.52;68.24
5812;BME280;2932;52.400;9.558;2023-03-18T07:24:13;100370.63;;;16.67;67.78
5812;BME280;2932;52.400;9.558;2023-03-18T07:26:39;100371.78;;;16.62;67.96
5812;BME280;2932;52.400;9.558;2023-03-18T07:29:05;100379.06;;;16.85;67.74
5812;BME280;2932;52.400;9.558;2023-03-18T07:31:31;100377.09;;;16.99;66.99
5812;BME280;2932;52.400;9.558;2023-03-18T07:33:56;100373.06;;;16.83;67.30
5812;BME280;2932;52.400;9.558;2023-03-18T07:36:22;100387.03;;;16.86;67.42
5812;BME280;2932;52.400;9.558;2023-03-18T07:38:48;100383.06;;;16.94;67.59
5812;BME280;2932;52.400;9.558;2023-03-18T07:41:14;100390.25;;;16.88;67.71
5812;BME280;2932;52.400;9.558;2023-03-18T07:43:39;100387.06;;;16.93;67.75
5812;BME280;2932;52.400;9.558;2023-03-18T07:46:05;100396.25;;;16.94;67.77
5812;BME280;2932;52.400;9.558;2023-03-18T07:48:31;100393.44;;;16.90;67.91
5812;BME280;2932;52.400;9.558;2023-03-18T07:50:59;100399.06;;;16.97;67.71
5812;BME280;2932;52.400;9.558;2023-03-18T07:53:26;100403.91;;;17.11;67.54
5812;BME280;2932;52.400;9.558;2023-03-18T07:55:52;100405.88;;;17.11;67.45
5812;BME280;2932;52.400;9.558;2023-03-18T07:58:17;100411.47;;;17.21;67.17
5812;BME280;2932;52.400;9.558;2023-03-18T08:00:42;100413.09;;;17.22;67.17
5812;BME280;2932;52.400;9.558;2023-03-18T08:03:10;100417.06;;;17.21;67.27
5812;BME280;2932;52.400;9.558;2023-03-18T08:05:36;100417.00;;;16.93;67.63
5812;BME280;2932;52.400;9.558;2023-03-18T08:08:01;100419.81;;;16.96;68.07
5812;BME280;2932;52.400;9.558;2023-03-18T08:10:28;100417.88;;;17.15;67.94
5812;BME280;2932;52.400;9.558;2023-03-18T08:12:53;100418.94;;;16.71;68.15
5812;BME280;2932;52.400;9.558;2023-03-18T08:15:20;100419.75;;;16.75;67.91
5812;BME280;2932;52.400;9.558;2023-03-18T08:17:46;100428.56;;;16.88;68.29
5812;BME280;2932;52.400;9.558;2023-03-18T08:20:12;100421.75;;;16.78;68.91
5812;BME280;2932;52.400;9.558;2023-03-18T08:22:37;100416.34;;;16.38;69.34
5812;BME280;2932;52.400;9.558;2023-03-18T08:25:03;100426.78;;;16.51;69.52
5812;BME280;2932;52.400;9.558;2023-03-18T08:27:28;100434.19;;;16.22;69.97
5812;BME280;2932;52.400;9.558;2023-03-18T08:29:54;100424.41;;;16.53;69.42
5812;BME280;2932;52.400;9.558;2023-03-18T08:32:19;100435.47;;;16.32;69.83
5812;BME280;2932;52.400;9.558;2023-03-18T08:34:46;100440.28;;;16.35;69.95
5812;BME280;2932;52.400;9.558;2023-03-18T08:37:11;100432.13;;;16.78;69.20
5812;BME280;2932;52.400;9.558;2023-03-18T08:39:37;100436.59;;;17.00;69.07
5812;BME280;2932;52.400;9.558;2023-03-18T08:42:03;100442.88;;;16.72;69.36
5812;BME280;2932;52.400;9.558;2023-03-18T08:44:29;100437.34;;;16.79;69.33
5812;BME280;2932;52.400;9.558;2023-03-18T08:46:55;100437.00;;;17.02;68.52
5812;BME280;2932;52.400;9.558;2023-03-18T08:49:22;100444.59;;;17.02;69.02
5812;BME280;2932;52.400;9.558;2023-03-18T08:51:47;100449.69;;;16.78;69.19
5812;BME280;2932;52.400;9.558;2023-03-18T08:54:12;100445.63;;;16.65;69.44
5812;BME280;2932;52.400;9.558;2023-03-18T08:56:38;100448.97;;;16.95;69.24
5812;BME280;2932;52.400;9.558;2023-03-18T08:59:04;100450.47;;;16.75;69.13
5812;BME280;2932;52.400;9.558;2023-03-18T09:01:29;100443.34;;;16.88;69.16
5812;BME280;2932;52.400;9.558;2023-03-18T09:03:54;100436.53;;;16.82;69.43
5812;BME280;2932;52.400;9.558;2023-03-18T09:06:22;100459.00;;;17.21;68.47
5812;BME280;2932;52.400;9.558;2023-03-18T09:08:47;100461.16;;;17.74;66.83
5812;BME280;2932;52.400;9.558;2023-03-18T09:11:13;100465.47;;;17.61;66.51
5812;BME280;2932;52.400;9.558;2023-03-18T09:13:38;100463.16;;;17.74;66.29
5812;BME280;2932;52.400;9.558;2023-03-18T09:16:04;100460.34;;;18.02;65.90
5812;BME280;2932;52.400;9.558;2023-03-18T09:18:30;100463.81;;;17.21;67.44
5812;BME280;2932;52.400;9.558;2023-03-18T09:20:56;100457.88;;;17.37;66.75
5812;BME280;2932;52.400;9.558;2023-03-18T09:23:22;100464.66;;;17.36;66.97
5812;BME280;2932;52.400;9.558;2023-03-18T09:25:47;100463.13;;;17.66;66.88
5812;BME280;2932;52.400;9.558;2023-03-18T09:28:14;100462.69;;;18.43;66.00
5812;BME280;2932;52.400;9.558;2023-03-18T09:30:41;100467.88;;;18.65;64.16
5812;BME280;2932;52.400;9.558;2023-03-18T09:33:07;100453.94;;;18.23;64.84
5812;BME280;2932;52.400;9.558;2023-03-18T09:35:33;100464.72;;;17.67;65.95
5812;BME280;2932;52.400;9.558;2023-03-18T09:37:59;100467.13;;;18.22;65.69
5812;BME280;2932;52.400;9.558;2023-03-18T09:40:32;100459.44;;;18.73;64.16
5812;BME280;2932;52.400;9.558;2023-03-18T09:43:08;100453.34;;;18.95;64.67
5812;BME280;2932;52.400;9.558;2023-03-18T09:45:57;100462.28;;;18.51;63.47
5812;BME280;2932;52.400;9.558;2023-03-18T09:48:42;100470.72;;;18.33;64.47
5812;BME280;2932;52.400;9.558;2023-03-18T09:53:58;100487.91;;;18.68;63.08
5812;BME280;2932;52.400;9.558;2023-03-18T09:56:29;100479.06;;;18.55;63.39
5812;BME280;2932;52.400;9.558;2023-03-18T09:59:05;100479.00;;;18.83;62.93
5812;BME280;2932;52.400;9.558;2023-03-18T10:01:41;100481.47;;;18.56;63.61
5812;BME280;2932;52.400;9.558;2023-03-18T10:06:43;100481.97;;;19.39;62.73
5812;BME280;2932;52.400;9.558;2023-03-18T10:09:27;100481.94;;;18.30;64.03
5812;BME280;2932;52.400;9.558;2023-03-18T10:17:19;100489.41;;;18.86;63.09
5812;BME280;2932;52.400;9.558;2023-03-18T10:19:59;100483.13;;;18.22;64.17
5812;BME280;2932;52.400;9.558;2023-03-18T10:22:51;100495.94;;;18.02;64.77
5812;BME280;2932;52.400;9.558;2023-03-18T10:28:12;100494.34;;;18.22;64.24
5812;BME280;2932;52.400;9.558;2023-03-18T10:31:00;100504.72;;;17.79;65.33
5812;BME280;2932;52.400;9.558;2023-03-18T10:33:57;100502.34;;;17.95;64.66
5812;BME280;2932;52.400;9.558;2023-03-18T10:38:59;100513.13;;;18.00;64.89
5812;BME280;2932;52.400;9.558;2023-03-18T10:41:37;100511.53;;;18.20;64.09
5812;BME280;2932;52.400;9.558;2023-03-18T10:44:33;100510.75;;;17.98;64.33
5812;BME280;2932;52.400;9.558;2023-03-18T10:49:36;100515.50;;;17.73;65.43
5812;BME280;2932;52.400;9.558;2023-03-18T10:54:43;100513.53;;;17.84;65.51
5812;BME280;2932;52.400;9.558;2023-03-18T10:57:14;100515.16;;;17.96;65.21
5812;BME280;2932;52.400;9.558;2023-03-18T10:59:41;100514.75;;;17.87;65.28
5812;BME280;2932;52.400;9.558;2023-03-18T11:02:19;100507.53;;;17.75;65.07
5812;BME280;2932;52.400;9.558;2023-03-18T11:04:51;100516.19;;;17.34;66.70
5812;BME280;2932;52.400;9.558;2023-03-18T11:07:23;100515.81;;;17.43;66.49
5812;BME280;2932;52.400;9.558;2023-03-18T11:09:50;100511.47;;;17.53;66.44
5812;BME280;2932;52.400;9.558;2023-03-18T11:12:26;100514.56;;;17.30;66.60
5812;BME280;2932;52.400;9.558;2023-03-18T11:14:53;100510.50;;;17.06;66.96
5812;BME280;2932;52.400;9.558;2023-03-18T11:22:47;100511.47;;;17.53;66.28
5812;BME280;2932;52.400;9.558;2023-03-18T11:25:15;100506.69;;;17.67;66.97
5812;BME280;2932;52.400;9.558;2023-03-18T11:30:13;100509.16;;;17.97;65.82
5812;BME280;2932;52.400;9.558;2023-03-18T11:33:01;100513.88;;;17.65;65.55
5812;BME280;2932;52.400;9.558;2023-03-18T11:35:35;100522.19;;;17.40;66.22
5812;BME280;2932;52.400;9.558;2023-03-18T11:38:03;100525.13;;;17.83;65.36
5812;BME280;2932;52.400;9.558;2023-03-18T11:40:29;100525.53;;;18.13;65.42
5812;BME280;2932;52.400;9.558;2023-03-18T11:43:01;100515.38;;;17.30;66.31
5812;BME280;2932;52.400;9.558;2023-03-18T11:45:53;100525.47;;;17.56;65.71
5812;BME280;2932;52.400;9.558;2023-03-18T11:48:40;100520.75;;;18.24;63.82
5812;BME280;2932;52.400;9.558;2023-03-18T11:56:57;100523.16;;;17.94;64.43
5812;BME280;2932;52.400;9.558;2023-03-18T12:07:56;100520.63;;;18.99;62.11
5812;BME280;2932;52.400;9.558;2023-03-18T12:10:35;100515.78;;;20.39;60.13
5812;BME280;2932;52.400;9.558;2023-03-18T12:16:20;100510.75;;;20.60;57.58
5812;BME280;2932;52.400;9.558;2023-03-18T12:24:52;100526.13;;;19.20;61.07
5812;BME280;2932;52.400;9.558;2023-03-18T12:30:43;100521.38;;;19.90;59.29
5812;BME280;2932;52.400;9.558;2023-03-18T12:44:58;100512.69;;;21.92;53.92
5812;BME280;2932;52.400;9.558;2023-03-18T12:50:01;100518.34;;;22.16;54.10
5812;BME280;2932;52.400;9.558;2023-03-18T12:55:03;100511.44;;;21.67;54.86
5812;BME280;2932;52.400;9.558;2023-03-18T13:02:52;100511.31;;;22.27;53.10
5812;BME280;2932;52.400;9.558;2023-03-18T13:05:46;100522.47;;;22.58;52.53
5812;BME280;2932;52.400;9.558;2023-03-18T13:17:47;100510.13;;;24.19;49.91
5812;BME280;2932;52.400;9.558;2023-03-18T13:23:14;100514.09;;;24.83;48.88
5812;BME280;2932;52.400;9.558;2023-03-18T13:26:02;100537.94;;;23.52;49.93
5812;BME280;2932;52.400;9.558;2023-03-18T13:33:52;100532.66;;;22.02;52.54
5812;BME280;2932;52.400;9.558;2023-03-18T13:42:19;100528.16;;;22.78;51.33
5812;BME280;2932;52.400;9.558;2023-03-18T13:47:37;100517.38;;;24.82;47.08
5812;BME280;2932;52.400;9.558;2023-03-18T13:52:44;100515.31;;;24.53;48.18
5812;BME280;2932;52.400;9.558;2023-03-18T14:00:41;100508.75;;;24.27;48.50
5812;BME280;2932;52.400;9.558;2023-03-18T14:05:45;100516.91;;;24.71;46.61
5812;BME280;2932;52.400;9.558;2023-03-18T14:08:33;100517.00;;;24.18;48.16
5812;BME280;2932;52.400;9.558;2023-03-18T14:16:14;100510.47;;;24.05;48.61
5812;BME280;2932;52.400;9.558;2023-03-18T14:19:17;100513.56;;;23.94;48.95
5812;BME280;2932;52.400;9.558;2023-03-18T14:21:31;100506.50;;;24.51;47.86
5812;BME280;2932;52.400;9.558;2023-03-18T14:24:01;100509.72;;;25.11;46.98
5812;BME280;2932;52.400;9.558;2023-03-18T14:26:29;100500.47;;;25.62;46.61
5812;BME280;2932;52.400;9.558;2023-03-18T14:41:56;100515.09;;;25.35;44.96
5812;BME280;2932;52.400;9.558;2023-03-18T14:46:58;100523.69;;;23.00;49.40
5812;BME280;2932;52.400;9.558;2023-03-18T14:49:32;100515.44;;;23.09;49.35
5812;BME280;2932;52.400;9.558;2023-03-18T14:52:04;100515.09;;;22.41;50.35
5812;BME280;2932;52.400;9.558;2023-03-18T14:54:34;100517.63;;;21.85;51.55
5812;BME280;2932;52.400;9.558;2023-03-18T14:57:03;100508.63;;;22.20;51.27
5812;BME280;2932;52.400;9.558;2023-03-18T14:59:29;100510.06;;;22.75;50.57
5812;BME280;2932;52.400;9.558;2023-03-18T15:01:54;100506.75;;;22.57;50.62
5812;BME280;2932;52.400;9.558;2023-03-18T15:04:22;100512.50;;;22.73;49.96
5812;BME280;2932;52.400;9.558;2023-03-18T15:06:49;100507.59;;;22.77;50.13
5812;BME280;2932;52.400;9.558;2023-03-18T15:09:18;100512.66;;;22.66;50.05
5812;BME280;2932;52.400;9.558;2023-03-18T15:11:46;100511.22;;;22.35;50.66
5812;BME280;2932;52.400;9.558;2023-03-18T15:14:17;100507.38;;;22.45;50.60
5812;BME280;2932;52.400;9.558;2023-03-18T15:17:00;100509.97;;;22.36;51.08
5812;BME280;2932;52.400;9.558;2023-03-18T15:19:27;100511.94;;;22.39;50.73
5812;BME280;2932;52.400;9.558;2023-03-18T15:21:54;100507.16;;;22.36;50.77
5812;BME280;2932;52.400;9.558;2023-03-18T15:24:22;100502.09;;;22.47;50.85
5812;BME280;2932;52.400;9.558;2023-03-18T15:27:18;100500.13;;;22.67;50.61
5812;BME280;2932;52.400;9.558;2023-03-18T15:32:26;100502.34;;;22.56;50.32
5812;BME280;2932;52.400;9.558;2023-03-18T15:35:05;100490.81;;;22.70;51.00
5812;BME280;2932;52.400;9.558;2023-03-18T15:37:43;100492.31;;;22.78;50.70
5812;BME280;2932;52.400;9.558;2023-03-18T15:40:26;100493.75;;;22.63;50.15
5812;BME280;2932;52.400;9.558;2023-03-18T15:43:16;100484.53;;;22.16;51.19
5812;BME280;2932;52.400;9.558;2023-03-18T15:45:58;100497.97;;;21.20;52.70
5812;BME280;2932;52.400;9.558;2023-03-18T15:51:29;100486.06;;;20.79;52.58
5812;BME280;2932;52.400;9.558;2023-03-18T15:54:25;100492.97;;;20.71;53.09